Terminal Aerodrome Forecast
Issued by NWS Grand Junction, CO

Home | Current Version | Previous Version | Text Only | Print | Product List | Glossary On
Versions: 1 2 3 4 5 6 7 8 9 10 11 12 13 14 15 16 17 18 19 20 21 22 23
000
FTUS45 KGJT 290530
TAFGJT
TAF
KGJT 290530Z 2906/3006 27006KT P6SM FEW120
     FM290800 09006KT P6SM SKC
     FM291100 12005KT P6SM FEW250
     FM292000 31005KT P6SM SCT100
     FM300300 06005KT P6SM FEW100=

USA.gov is the U.S. government's official web portal to all federal, state and local government web resources and services.